Time;durP1;ratioP1;P1;durP2;ratioP2;P2;SDS_P1;SDS_P2;PMS_P1;PMS_P2;Temp;Humidity;BMP_temperature;BMP_pressure;BME280_temperature;BME280_humidity;BME280_pressure;Samples;Min_cycle;Max_cycle;Signal;HPM_P1;HPM_P2
2022/03/05 00:02:01;;;;;;;11.67;6.20;;;26.00;81.00;;;;;;5051282;28;20233;-76
2022/03/05 00:04:29;;;;;;;11.20;6.43;;;25.80;81.20;;;;;;5034902;28;20255;-75
2022/03/05 00:06:56;;;;;;;12.93;7.27;;;25.90;80.30;;;;;;5040812;28;20236;-74
2022/03/05 00:09:23;;;;;;;13.50;7.03;;;26.10;79.50;;;;;;5049779;28;20626;-75
2022/03/05 00:11:51;;;;;;;11.13;6.27;;;25.90;79.30;;;;;;5049083;28;20234;-74
2022/03/05 00:14:18;;;;;;;11.93;6.27;;;25.90;79.60;;;;;;5054568;28;20254;-74
2022/03/05 00:16:45;;;;;;;13.23;7.13;;;25.90;79.70;;;;;;5053164;28;20267;-74
2022/03/05 00:19:13;;;;;;;13.20;7.20;;;26.00;80.20;;;;;;5039462;28;20674;-75
2022/03/05 00:21:40;;;;;;;17.27;7.23;;;26.00;79.50;;;;;;5042025;28;20651;-77
2022/03/05 00:24:07;;;;;;;15.23;8.33;;;26.00;79.30;;;;;;5050725;28;20186;-79
2022/03/05 00:26:35;;;;;;;15.10;9.00;;;26.30;79.10;;;;;;5054115;28;20195;-75
2022/03/05 00:29:02;;;;;;;15.50;9.40;;;26.50;78.10;;;;;;5049161;28;20176;-78
2022/03/05 00:31:30;;;;;;;13.93;9.40;;;26.60;78.30;;;;;;5046970;28;20180;-75
2022/03/05 00:33:57;;;;;;;12.40;9.13;;;26.40;77.20;;;;;;5042843;28;20259;-78
2022/03/05 00:36:24;;;;;;;20.90;10.60;;;26.50;76.00;;;;;;5052561;28;20182;-73
2022/03/05 00:38:51;;;;;;;16.80;10.30;;;26.50;77.10;;;;;;5053386;28;20202;-74
2022/03/05 00:41:19;;;;;;;16.63;9.83;;;26.50;76.30;;;;;;5053475;28;20703;-74
2022/03/05 00:43:46;;;;;;;18.57;11.10;;;26.40;76.40;;;;;;5035218;28;20275;-75
2022/03/05 00:46:14;;;;;;;14.03;10.00;;;26.30;76.20;;;;;;5042624;28;20215;-75
2022/03/05 00:48:41;;;;;;;19.37;11.50;;;26.20;76.40;;;;;;5051621;28;20176;-77
2022/03/05 00:51:08;;;;;;;18.10;11.73;;;26.20;77.10;;;;;;5051922;28;20183;-76
2022/03/05 00:53:38;;;;;;;15.83;10.57;;;26.50;76.40;;;;;;5049104;28;20176;-75
2022/03/05 00:56:06;;;;;;;17.03;10.57;;;26.70;74.70;;;;;;5053564;28;20186;-76
2022/03/05 00:58:33;;;;;;;19.70;11.07;;;26.60;76.60;;;;;;5053504;28;20258;-74
2022/03/05 01:01:01;;;;;;;16.13;10.40;;;26.60;75.60;;;;;;5052277;28;20179;-80
2022/03/05 01:03:28;;;;;;;19.53;10.30;;;26.40;76.80;;;;;;5048473;28;20192;-76
2022/03/05 01:05:56;;;;;;;18.03;10.30;;;26.20;78.00;;;;;;5052195;28;20239;-75
2022/03/05 01:08:23;;;;;;;12.37;8.60;;;26.10;79.10;;;;;;5038833;28;20196;-75
2022/03/05 01:10:50;;;;;;;19.00;11.07;;;26.00;78.80;;;;;;5041746;28;20172;-74
2022/03/05 01:13:17;;;;;;;17.77;9.57;;;26.20;77.80;;;;;;5051593;28;20264;-74
2022/03/05 01:15:45;;;;;;;15.23;8.70;;;26.10;78.00;;;;;;5037540;28;20188;-79
2022/03/05 01:18:12;;;;;;;17.47;9.57;;;26.10;78.30;;;;;;5050920;28;20271;-76
2022/03/05 01:20:39;;;;;;;16.73;8.17;;;26.20;78.60;;;;;;5053105;28;20646;-77
2022/03/05 01:23:07;;;;;;;17.13;8.57;;;26.30;78.50;;;;;;5045541;28;20193;-78
2022/03/05 01:25:34;;;;;;;19.67;9.13;;;26.30;78.30;;;;;;5052341;28;20889;-77
2022/03/05 01:28:02;;;;;;;20.00;8.23;;;26.60;77.50;;;;;;5062857;28;20211;-75
2022/03/05 01:30:29;;;;;;;17.40;8.10;;;26.60;77.40;;;;;;5052469;28;20214;-79
2022/03/05 01:32:56;;;;;;;18.07;8.60;;;26.50;77.90;;;;;;5052785;28;20227;-74
2022/03/05 01:35:24;;;;;;;18.60;9.03;;;26.50;78.10;;;;;;5040808;28;20185;-76
2022/03/05 01:37:51;;;;;;;15.77;8.30;;;26.90;77.30;;;;;;5046529;28;20318;-74
2022/03/05 01:40:18;;;;;;;18.97;9.77;;;27.00;75.90;;;;;;5052537;28;20175;-76
2022/03/05 01:42:46;;;;;;;19.73;10.30;;;27.10;75.90;;;;;;5052597;28;20167;-74
2022/03/05 01:45:13;;;;;;;16.97;9.10;;;27.20;75.70;;;;;;5049120;28;20222;-79
2022/03/05 01:47:42;;;;;;;20.50;8.23;;;27.40;74.40;;;;;;5052590;28;20208;-78
2022/03/05 01:50:11;;;;;;;12.50;8.50;;;27.40;73.80;;;;;;5051427;28;20176;-78
2022/03/05 01:52:39;;;;;;;15.33;8.63;;;27.30;73.50;;;;;;5032667;28;20252;-81
2022/03/05 01:55:07;;;;;;;17.10;8.87;;;27.40;73.80;;;;;;5038782;28;20178;-77
2022/03/05 01:57:34;;;;;;;16.23;9.57;;;27.50;73.50;;;;;;5046428;28;20220;-77
2022/03/05 02:00:02;;;;;;;14.43;8.83;;;27.50;73.10;;;;;;5045808;28;20307;-76
2022/03/05 02:02:29;;;;;;;14.63;9.13;;;27.60;73.40;;;;;;5049996;28;20207;-81
2022/03/05 02:04:57;;;;;;;14.73;8.07;;;27.60;73.80;;;;;;5050000;28;20266;-84
2022/03/05 02:07:25;;;;;;;17.50;8.27;;;27.30;74.20;;;;;;5050851;28;20214;-85
2022/03/05 02:09:53;;;;;;;18.77;8.43;;;27.30;75.20;;;;;;5033085;28;20246;-76
2022/03/05 02:12:29;;;;;;;17.77;9.80;;;27.20;76.20;;;;;;5045130;28;20168;-75
2022/03/05 02:14:58;;;;;;;24.47;9.00;;;27.10;76.80;;;;;;5048816;28;20183;-78
2022/03/05 02:17:27;;;;;;;14.93;7.27;;;26.90;77.20;;;;;;5042848;28;20581;-78
2022/03/05 02:19:55;;;;;;;17.50;6.10;;;26.90;77.60;;;;;;5036255;28;20192;-75
2022/03/05 02:22:25;;;;;;;13.60;6.00;;;26.70;78.50;;;;;;5038173;28;20180;-76
2022/03/05 02:24:59;;;;;;;19.97;7.53;;;26.50;79.10;;;;;;5035595;28;20179;-74
2022/03/05 02:27:27;;;;;;;13.33;5.87;;;26.50;79.30;;;;;;5047729;28;20215;-75
2022/03/05 02:29:55;;;;;;;17.30;6.80;;;26.30;79.40;;;;;;5055248;28;20537;-77
2022/03/05 02:32:24;;;;;;;14.83;7.13;;;26.00;79.90;;;;;;5053805;28;20188;-75
2022/03/05 02:34:51;;;;;;;16.90;6.93;;;26.10;80.10;;;;;;5056501;28;20541;-74
2022/03/05 02:37:19;;;;;;;13.23;6.60;;;26.60;79.30;;;;;;5049552;28;20183;-74
2022/03/05 02:39:47;;;;;;;15.40;6.67;;;26.70;78.20;;;;;;5049885;28;20207;-74
2022/03/05 02:42:15;;;;;;;14.93;7.07;;;27.20;77.10;;;;;;5056324;28;20182;-74
2022/03/05 02:44:43;;;;;;;17.20;7.57;;;27.30;76.10;;;;;;5055860;28;20191;-79
2022/03/05 02:47:10;;;;;;;13.17;6.60;;;27.50;75.40;;;;;;5043854;28;20223;-75
2022/03/05 02:49:38;;;;;;;10.20;6.57;;;27.60;74.80;;;;;;5056155;28;20279;-82
2022/03/05 02:52:05;;;;;;;13.43;6.90;;;27.80;73.90;;;;;;5053044;28;20185;-79
2022/03/05 02:54:33;;;;;;;15.97;6.63;;;27.90;74.20;;;;;;5045307;28;20168;-78
2022/03/05 02:57:00;;;;;;;13.67;6.63;;;28.00;73.50;;;;;;5056174;28;20183;-79
2022/03/05 02:59:28;;;;;;;14.50;6.57;;;27.90;72.90;;;;;;5055877;28;20188;-78
2022/03/05 03:01:56;;;;;;;13.90;6.17;;;27.90;72.70;;;;;;5054514;28;20191;-79
2022/03/05 03:04:23;;;;;;;11.17;5.63;;;27.10;74.30;;;;;;5052739;28;20259;-77
2022/03/05 03:06:50;;;;;;;11.80;5.50;;;27.20;74.50;;;;;;5036783;28;20323;-85
2022/03/05 03:09:18;;;;;;;12.20;5.10;;;27.20;74.10;;;;;;5050099;28;20183;-74
2022/03/05 03:11:45;;;;;;;12.90;5.20;;;27.20;75.20;;;;;;5046911;28;20184;-75
2022/03/05 03:14:12;;;;;;;13.93;5.17;;;27.20;74.90;;;;;;5055483;28;20626;-79
2022/03/05 03:16:40;;;;;;;10.83;4.23;;;27.80;73.50;;;;;;5051910;28;20602;-77
2022/03/05 03:19:07;;;;;;;11.83;4.20;;;28.20;72.00;;;;;;5035951;28;20263;-75
2022/03/05 03:21:35;;;;;;;9.50;4.10;;;28.10;72.00;;;;;;5049462;28;20799;-74
2022/03/05 03:24:02;;;;;;;7.90;4.20;;;27.90;72.50;;;;;;5051870;28;20245;-73
2022/03/05 03:26:29;;;;;;;11.80;4.10;;;27.70;73.20;;;;;;5055402;28;20211;-73
2022/03/05 03:28:57;;;;;;;10.50;3.67;;;27.70;73.50;;;;;;5054920;28;20207;-80
2022/03/05 03:31:24;;;;;;;9.87;3.23;;;27.30;74.10;;;;;;5043641;28;20187;-76
2022/03/05 03:33:52;;;;;;;11.73;3.80;;;27.00;75.10;;;;;;5054584;28;20172;-80
2022/03/05 03:36:20;;;;;;;9.20;3.53;;;27.10;75.30;;;;;;5068237;28;20187;-74
2022/03/05 03:38:48;;;;;;;11.50;3.83;;;27.00;75.80;;;;;;5054497;28;20180;-78
2022/03/05 03:41:15;;;;;;;9.13;3.53;;;27.10;75.40;;;;;;5042807;28;20173;-74
2022/03/05 03:43:42;;;;;;;7.10;3.07;;;26.90;75.30;;;;;;5034970;28;20192;-75
2022/03/05 03:46:10;;;;;;;9.00;3.67;;;27.10;75.10;;;;;;5049803;28;20211;-73
2022/03/05 03:48:37;;;;;;;10.73;4.33;;;27.20;74.60;;;;;;5054832;28;20254;-73
2022/03/05 03:51:05;;;;;;;13.50;3.17;;;27.40;73.80;;;;;;5055000;28;20164;-75
2022/03/05 03:53:32;;;;;;;26.23;3.53;;;27.60;73.70;;;;;;5049814;28;20250;-79
2022/03/05 03:55:59;;;;;;;8.47;2.83;;;27.60;73.00;;;;;;5049646;28;20268;-80
2022/03/05 03:58:27;;;;;;;12.10;3.07;;;27.60;73.30;;;;;;5037678;28;20189;-81
2022/03/05 04:00:54;;;;;;;15.30;4.13;;;27.30;73.40;;;;;;5047395;28;20212;-87
2022/03/05 04:03:22;;;;;;;17.67;3.17;;;27.20;74.70;;;;;;5035119;28;20538;-82
2022/03/05 04:05:49;;;;;;;12.30;3.37;;;27.00;75.30;;;;;;5033340;28;20678;-79
2022/03/05 04:11:03;;;;;;;13.23;2.77;;;27.20;75.10;;;;;;5041077;28;20548;-83
2022/03/05 04:13:31;;;;;;;10.97;2.50;;;27.00;74.90;;;;;;5054744;28;20176;-78
2022/03/05 04:15:58;;;;;;;11.87;2.60;;;27.00;75.70;;;;;;5048613;28;20179;-83
2022/03/05 04:18:26;;;;;;;10.10;2.87;;;27.20;73.90;;;;;;5054580;28;20195;-75
2022/03/05 04:20:53;;;;;;;8.07;2.43;;;27.40;72.80;;;;;;5054661;28;20168;-79
2022/03/05 04:23:20;;;;;;;11.93;2.60;;;27.40;72.10;;;;;;5054787;28;20178;-81
2022/03/05 04:25:48;;;;;;;7.03;2.23;;;27.60;72.20;;;;;;5053413;28;20176;-84
2022/03/05 04:28:15;;;;;;;10.50;2.43;;;27.90;71.20;;;;;;5055279;28;20184;-81
2022/03/05 04:30:43;;;;;;;13.27;2.50;;;28.30;70.90;;;;;;5054521;28;20168;-82
2022/03/05 04:33:11;;;;;;;14.47;2.60;;;28.40;69.50;;;;;;5052832;28;20514;-78
2022/03/05 04:35:39;;;;;;;10.47;2.37;;;28.80;70.10;;;;;;5057293;28;20298;-80
2022/03/05 04:38:06;;;;;;;9.03;2.40;;;28.90;68.40;;;;;;5054820;28;20192;-77
2022/03/05 04:40:34;;;;;;;7.95;2.42;;;28.80;69.30;;;;;;5041885;28;20181;-78
2022/03/05 04:43:01;;;;;;;8.47;2.23;;;29.50;66.80;;;;;;5035081;28;20540;-81
2022/03/05 04:45:29;;;;;;;9.95;2.83;;;30.00;64.00;;;;;;5033971;28;20643;-78
2022/03/05 04:47:56;;;;;;;6.95;2.25;;;29.80;64.30;;;;;;5046729;28;20210;-76
2022/03/05 04:50:23;;;;;;;6.55;1.88;;;29.80;63.80;;;;;;5034122;28;20181;-85
2022/03/05 04:52:51;;;;;;;5.75;1.58;;;29.80;62.50;;;;;;5039219;28;20564;-77
2022/03/05 04:55:18;;;;;;;9.27;2.00;;;29.90;62.80;;;;;;5042532;28;20184;-76
2022/03/05 04:57:46;;;;;;;5.80;1.70;;;30.30;61.90;;;;;;5044356;28;20164;-79
2022/03/05 05:00:13;;;;;;;5.55;1.88;;;29.90;62.10;;;;;;5044642;28;20230;-81
2022/03/05 05:02:41;;;;;;;6.97;1.60;;;30.20;60.30;;;;;;5042623;28;20845;-80
2022/03/05 05:05:09;;;;;;;8.77;2.20;;;30.60;60.30;;;;;;5053793;28;20212;-77
2022/03/05 05:07:37;;;;;;;9.60;1.80;;;30.40;60.90;;;;;;5053671;28;20216;-80
2022/03/05 05:10:05;;;;;;;4.45;1.85;;;30.20;61.40;;;;;;5052869;28;20708;-80
2022/03/05 05:12:32;;;;;;;5.32;1.80;;;30.50;61.00;;;;;;5052320;28;20180;-78
2022/03/05 05:14:59;;;;;;;6.55;1.88;;;30.20;61.00;;;;;;5037715;28;20177;-78
2022/03/05 05:17:27;;;;;;;11.40;2.70;;;29.70;63.30;;;;;;5033575;28;20176;-76
2022/03/05 05:19:54;;;;;;;8.20;1.75;;;29.70;64.30;;;;;;5033512;28;20176;-76
2022/03/05 05:22:22;;;;;;;8.98;2.20;;;29.20;65.70;;;;;;5038883;28;20187;-79
2022/03/05 05:24:49;;;;;;;8.20;2.10;;;28.80;67.10;;;;;;5043582;28;20169;-81
2022/03/05 05:27:16;;;;;;;4.50;1.50;;;28.70;67.00;;;;;;5067166;28;20666;-83
2022/03/05 05:29:43;;;;;;;6.53;2.08;;;28.60;67.20;;;;;;5046451;28;20185;-77
2022/03/05 05:32:11;;;;;;;9.00;2.38;;;29.10;66.20;;;;;;5046108;28;20177;-81
2022/03/05 05:34:39;;;;;;;5.13;1.70;;;29.30;65.20;;;;;;5049101;28;20609;-79
2022/03/05 05:37:06;;;;;;;4.93;1.80;;;29.30;65.30;;;;;;5041750;28;20179;-85
2022/03/05 05:39:34;;;;;;;4.72;1.50;;;29.00;65.30;;;;;;5052226;28;20222;-81
2022/03/05 05:42:01;;;;;;;5.47;1.42;;;30.30;62.30;;;;;;5051985;28;20645;-80
2022/03/05 05:44:29;;;;;;;5.57;1.40;;;30.00;61.50;;;;;;5042499;28;20718;-78
2022/03/05 05:46:56;;;;;;;6.05;1.67;;;30.90;60.10;;;;;;5032390;28;20201;-80
2022/03/05 05:49:24;;;;;;;4.45;1.85;;;31.10;58.00;;;;;;5033074;28;20177;-81
2022/03/05 05:51:51;;;;;;;8.07;1.95;;;30.80;58.60;;;;;;5032989;28;20175;-87
2022/03/05 05:54:18;;;;;;;6.60;1.63;;;30.90;59.60;;;;;;5034202;28;20207;-82
2022/03/05 05:56:46;;;;;;;7.25;1.70;;;30.60;58.80;;;;;;5035026;28;20227;-79
2022/03/05 05:59:13;;;;;;;9.10;1.70;;;30.80;58.30;;;;;;5044538;28;20736;-79
2022/03/05 06:01:41;;;;;;;4.28;1.52;;;30.90;58.30;;;;;;5050972;28;20176;-80
2022/03/05 06:04:08;;;;;;;9.00;1.60;;;30.70;59.30;;;;;;5049410;28;20223;-77
2022/03/05 06:06:36;;;;;;;5.65;1.70;;;30.40;60.20;;;;;;5044594;28;20234;-82
2022/03/05 06:09:04;;;;;;;5.93;1.50;;;30.50;59.80;;;;;;5046382;28;20635;-78
2022/03/05 06:11:31;;;;;;;7.85;1.95;;;30.60;60.00;;;;;;5046330;28;20241;-80
2022/03/05 06:13:59;;;;;;;6.15;1.80;;;31.10;58.70;;;;;;5046947;28;20626;-79
2022/03/05 06:16:26;;;;;;;4.70;1.60;;;30.30;60.50;;;;;;5052247;28;20217;-81
2022/03/05 06:18:53;;;;;;;7.65;1.95;;;29.10;64.20;;;;;;5043399;28;20176;-78
2022/03/05 06:21:21;;;;;;;10.07;1.85;;;28.00;67.90;;;;;;5032512;28;20242;-82
2022/03/05 06:23:48;;;;;;;8.60;1.90;;;27.70;69.40;;;;;;5037088;28;20214;-82
2022/03/05 06:26:16;;;;;;;10.33;2.27;;;27.70;69.50;;;;;;5052638;28;20203;-84
2022/03/05 06:28:43;;;;;;;9.03;2.10;;;27.50;70.50;;;;;;5049633;28;20218;-77
2022/03/05 06:31:10;;;;;;;6.53;1.63;;;27.20;71.40;;;;;;5052291;28;20172;-81
2022/03/05 06:33:39;;;;;;;5.53;1.73;;;26.90;72.20;;;;;;5049262;28;20179;-79
2022/03/05 06:36:06;;;;;;;6.93;1.93;;;26.70;72.70;;;;;;5050284;28;20267;-80
2022/03/05 06:38:33;;;;;;;5.47;2.20;;;26.60;73.60;;;;;;5051070;28;20182;-75
2022/03/05 06:41:01;;;;;;;6.97;1.80;;;26.50;73.80;;;;;;5048246;28;20273;-78
2022/03/05 06:43:28;;;;;;;8.20;1.73;;;26.50;73.60;;;;;;5045861;28;20176;-81
2022/03/05 06:45:56;;;;;;;10.70;2.10;;;26.50;74.40;;;;;;5052074;28;20258;-77
2022/03/05 06:48:23;;;;;;;5.37;1.53;;;26.70;74.00;;;;;;5051654;28;20172;-77
2022/03/05 06:50:51;;;;;;;6.00;1.90;;;26.50;75.00;;;;;;5036520;28;20185;-79
2022/03/05 06:53:18;;;;;;;7.97;1.63;;;26.30;75.60;;;;;;5052157;28;20179;-84
2022/03/05 06:55:46;;;;;;;9.37;2.10;;;26.20;76.60;;;;;;5045570;28;20331;-82
2022/03/05 06:58:15;;;;;;;6.27;1.80;;;26.00;77.80;;;;;;5040933;28;20172;-80
2022/03/05 07:00:43;;;;;;;12.40;2.17;;;25.90;78.00;;;;;;5052061;28;20175;-79
2022/03/05 07:03:10;;;;;;;5.87;1.93;;;25.80;78.60;;;;;;5051871;28;20206;-81
2022/03/05 07:05:37;;;;;;;9.33;2.07;;;25.80;78.30;;;;;;5050671;28;20702;-78
2022/03/05 07:08:05;;;;;;;8.23;2.20;;;25.90;78.40;;;;;;5052227;28;20243;-79
2022/03/05 07:10:32;;;;;;;8.63;1.70;;;25.80;78.20;;;;;;5048814;28;20222;-88
2022/03/05 07:13:00;;;;;;;9.87;2.23;;;25.70;78.80;;;;;;5034258;28;20185;-82
2022/03/05 07:15:27;;;;;;;8.00;1.63;;;25.70;79.00;;;;;;5032353;28;20192;-81
2022/03/05 07:17:54;;;;;;;6.93;2.10;;;25.60;79.40;;;;;;5052729;28;20188;-79
2022/03/05 07:20:22;;;;;;;10.33;2.40;;;25.60;79.70;;;;;;5053933;28;20386;-79
2022/03/05 07:22:50;;;;;;;7.73;2.37;;;25.50;80.00;;;;;;5053876;28;20225;-81
2022/03/05 07:25:17;;;;;;;7.67;2.30;;;25.40;80.30;;;;;;5055365;28;20176;-77
2022/03/05 07:27:44;;;;;;;7.30;2.00;;;25.30;81.00;;;;;;5049943;28;20287;-79
2022/03/05 07:30:12;;;;;;;10.87;2.07;;;25.20;80.80;;;;;;5054151;28;20211;-77
2022/03/05 07:32:40;;;;;;;7.77;2.00;;;25.20;81.40;;;;;;5040984;28;20176;-78
2022/03/05 07:35:08;;;;;;;4.83;1.93;;;25.20;81.40;;;;;;5048140;28;20186;-79
2022/03/05 07:37:35;;;;;;;7.73;2.93;;;25.20;81.90;;;;;;5053230;28;20524;-79
2022/03/05 07:40:04;;;;;;;8.37;2.70;;;25.00;81.90;;;;;;5052853;28;20184;-81
2022/03/05 07:42:31;;;;;;;6.60;2.53;;;25.00;82.20;;;;;;5051514;28;20654;-83
2022/03/05 07:44:59;;;;;;;10.93;2.17;;;25.00;82.20;;;;;;5053492;28;20274;-77
2022/03/05 07:47:26;;;;;;;9.30;2.10;;;24.90;82.30;;;;;;5051690;28;20215;-82
2022/03/05 07:49:54;;;;;;;10.20;1.80;;;24.90;82.50;;;;;;5052803;28;20180;-78
2022/03/05 07:52:21;;;;;;;8.27;1.80;;;24.90;82.60;;;;;;5054550;28;20207;-81
2022/03/05 07:54:49;;;;;;;11.00;2.30;;;24.90;82.80;;;;;;5052054;28;20266;-77
2022/03/05 07:57:16;;;;;;;8.13;1.60;;;24.90;83.10;;;;;;5050436;28;20188;-78
2022/03/05 07:59:44;;;;;;;12.53;2.37;;;24.90;83.00;;;;;;5053694;28;20180;-78
2022/03/05 08:02:15;;;;;;;9.67;2.53;;;25.00;83.10;;;;;;5053619;28;20215;-81
2022/03/05 08:04:46;;;;;;;8.53;1.93;;;24.90;83.30;;;;;;5054099;28;20710;-83
2022/03/05 08:07:13;;;;;;;7.10;2.07;;;24.80;83.30;;;;;;5052686;28;20257;-78
2022/03/05 08:09:42;;;;;;;9.93;2.13;;;24.80;83.50;;;;;;5055110;28;20176;-78
2022/03/05 08:12:10;;;;;;;7.33;1.80;;;24.70;83.70;;;;;;5045706;28;20183;-81
2022/03/05 08:14:38;;;;;;;9.23;2.33;;;24.70;83.90;;;;;;5054132;28;20616;-79
2022/03/05 08:17:06;;;;;;;9.43;2.03;;;24.70;84.10;;;;;;5054278;28;20172;-83
2022/03/05 08:19:33;;;;;;;13.87;1.93;;;24.70;84.30;;;;;;5053828;28;20176;-78
2022/03/05 08:22:01;;;;;;;7.00;1.97;;;24.60;84.10;;;;;;5048937;28;20176;-85
2022/03/05 08:24:28;;;;;;;12.00;2.30;;;24.60;84.20;;;;;;5040568;28;20195;-84
2022/03/05 08:26:56;;;;;;;10.00;2.80;;;24.60;84.40;;;;;;5040427;28;20522;-74
2022/03/05 08:29:24;;;;;;;11.00;2.00;;;24.60;84.40;;;;;;5067562;28;20176;-86
2022/03/05 08:31:51;;;;;;;12.30;2.77;;;24.60;84.50;;;;;;5051704;28;20222;-79
2022/03/05 08:34:19;;;;;;;8.67;2.27;;;24.60;84.50;;;;;;5033562;28;20177;-78
2022/03/05 08:36:47;;;;;;;10.30;2.40;;;24.50;84.70;;;;;;5045321;28;20638;-82
2022/03/05 08:39:14;;;;;;;10.33;2.60;;;24.50;84.80;;;;;;5044675;28;20185;-78
2022/03/05 08:41:41;;;;;;;5.93;2.10;;;24.50;84.90;;;;;;5047781;28;20179;-82
2022/03/05 08:44:09;;;;;;;11.23;2.33;;;24.50;84.90;;;;;;5051958;28;20834;-79
2022/03/05 08:46:36;;;;;;;11.63;2.50;;;24.50;85.00;;;;;;5051308;28;20211;-75
2022/03/05 08:49:04;;;;;;;8.97;2.73;;;24.50;85.10;;;;;;5034560;28;20241;-80
2022/03/05 08:51:31;;;;;;;8.33;2.90;;;24.50;85.30;;;;;;5038161;28;20227;-81
2022/03/05 08:53:59;;;;;;;11.07;2.20;;;24.40;85.30;;;;;;5042831;28;20223;-77
2022/03/05 08:56:26;;;;;;;8.53;2.30;;;24.50;85.40;;;;;;5041540;28;20650;-82
2022/03/05 08:58:57;;;;;;;14.80;3.03;;;24.50;85.60;;;;;;5042874;28;20738;-77
2022/03/05 09:01:24;;;;;;;10.40;2.90;;;24.50;85.70;;;;;;5038575;28;20180;-82
2022/03/05 09:03:52;;;;;;;10.47;2.60;;;24.40;85.80;;;;;;5040403;28;20172;-80
2022/03/05 09:06:19;;;;;;;10.23;2.57;;;24.40;85.80;;;;;;5044475;28;20228;-79
2022/03/05 09:08:47;;;;;;;14.10;2.60;;;24.40;85.90;;;;;;5050301;28;20188;-78
2022/03/05 09:11:14;;;;;;;11.47;2.70;;;24.40;86.00;;;;;;5036437;28;20355;-77
2022/03/05 09:13:41;;;;;;;10.23;2.63;;;24.40;86.30;;;;;;5045974;28;20250;-79
2022/03/05 09:16:09;;;;;;;14.97;2.50;;;24.40;86.20;;;;;;5040628;28;20729;-84
2022/03/05 09:18:36;;;;;;;12.53;3.13;;;24.40;86.30;;;;;;5044321;28;20228;-81
2022/03/05 09:21:03;;;;;;;10.63;2.17;;;24.30;86.40;;;;;;5036705;28;20267;-82
2022/03/05 09:23:31;;;;;;;16.70;2.30;;;24.40;86.30;;;;;;5040797;28;20262;-78
2022/03/05 09:25:58;;;;;;;15.80;2.10;;;24.30;86.60;;;;;;5033861;28;20176;-82
2022/03/05 09:28:25;;;;;;;12.40;3.00;;;24.30;86.60;;;;;;5043240;28;20211;-79
2022/03/05 09:30:53;;;;;;;8.97;2.10;;;24.30;86.50;;;;;;5044899;28;20239;-79
2022/03/05 09:33:22;;;;;;;7.93;2.23;;;24.30;86.60;;;;;;5038057;28;20180;-80
2022/03/05 09:35:50;;;;;;;13.67;2.47;;;24.30;86.50;;;;;;5058752;28;20178;-79
2022/03/05 09:38:18;;;;;;;12.23;2.17;;;24.30;86.70;;;;;;5049727;28;20172;-80
2022/03/05 09:40:46;;;;;;;13.53;2.67;;;24.30;86.80;;;;;;5038746;28;20230;-79
2022/03/05 09:43:13;;;;;;;12.53;2.23;;;24.30;86.80;;;;;;5050505;28;20263;-78
2022/03/05 09:45:45;;;;;;;7.83;2.27;;;24.30;86.90;;;;;;5051642;28;20172;-80
2022/03/05 09:48:21;;;;;;;12.00;2.87;;;24.30;87.10;;;;;;5040409;28;20209;-81
2022/03/05 09:50:48;;;;;;;11.43;2.43;;;24.30;87.20;;;;;;5033802;28;20302;-80
2022/03/05 09:53:16;;;;;;;13.93;3.07;;;24.30;87.30;;;;;;5039794;28;20168;-79
2022/03/05 09:55:44;;;;;;;11.07;2.97;;;24.30;87.40;;;;;;5050775;28;20194;-78
2022/03/05 09:58:11;;;;;;;14.23;2.60;;;24.30;87.50;;;;;;5051183;28;20179;-82
2022/03/05 10:00:40;;;;;;;13.77;2.57;;;24.30;87.70;;;;;;5050971;28;20176;-78
2022/03/05 10:03:11;;;;;;;12.47;2.77;;;24.30;87.70;;;;;;5047123;28;20187;-80
2022/03/05 10:05:39;;;;;;;10.50;2.93;;;24.30;87.80;;;;;;5034022;28;20213;-79
2022/03/05 10:08:11;;;;;;;9.13;2.60;;;24.30;88.10;;;;;;5042642;28;20216;-78
2022/03/05 10:10:59;;;;;;;18.47;3.50;;;24.30;88.20;;;;;;5052150;28;20746;-78
2022/03/05 10:13:32;;;;;;;11.93;2.67;;;24.20;88.30;;;;;;5038676;28;20310;-80
2022/03/05 10:16:03;;;;;;;15.00;3.13;;;24.20;88.50;;;;;;5051972;28;20178;-82
2022/03/05 10:18:30;;;;;;;13.23;3.00;;;24.20;88.60;;;;;;5052232;28;20559;-80
2022/03/05 10:21:07;;;;;;;16.03;3.53;;;24.20;88.70;;;;;;5050903;28;20571;-80
2022/03/05 10:23:37;;;;;;;17.67;3.97;;;24.20;88.90;;;;;;5045256;28;20700;-80
2022/03/05 10:26:09;;;;;;;17.47;3.70;;;24.20;88.90;;;;;;5042383;28;20259;-81
2022/03/05 10:28:38;;;;;;;17.23;3.70;;;24.10;89.00;;;;;;5052708;28;20241;-80
2022/03/05 10:31:08;;;;;;;11.97;3.40;;;24.10;89.10;;;;;;5035334;28;20195;-79
2022/03/05 10:33:41;;;;;;;15.90;4.53;;;24.20;89.20;;;;;;5032400;28;20180;-80
2022/03/05 10:36:20;;;;;;;20.47;5.87;;;24.10;89.20;;;;;;5032676;28;20557;-82
2022/03/05 10:38:56;;;;;;;13.00;3.60;;;24.20;89.30;;;;;;5032343;28;20172;-81
2022/03/05 10:41:37;;;;;;;15.30;3.43;;;24.10;89.30;;;;;;5052216;28;20191;-78
2022/03/05 10:44:08;;;;;;;15.30;3.57;;;24.10;89.30;;;;;;5045186;28;20554;-81
2022/03/05 10:46:47;;;;;;;15.87;3.37;;;24.10;89.50;;;;;;5031546;28;20201;-79
2022/03/05 10:49:27;;;;;;;12.50;3.97;;;24.10;89.30;;;;;;5032416;28;20180;-81
2022/03/05 10:52:00;;;;;;;11.90;2.83;;;24.10;89.30;;;;;;5035984;28;20169;-80
2022/03/05 10:54:40;;;;;;;15.20;3.33;;;24.00;89.20;;;;;;5040795;28;20176;-79
2022/03/05 10:57:24;;;;;;;16.80;4.50;;;24.10;89.40;;;;;;5036816;28;20176;-82
2022/03/05 10:59:53;;;;;;;19.37;5.27;;;24.00;89.50;;;;;;5047877;28;20199;-79
2022/03/05 11:02:23;;;;;;;10.90;3.63;;;24.10;89.40;;;;;;5048047;28;20560;-82
2022/03/05 11:04:52;;;;;;;16.93;3.43;;;24.00;89.40;;;;;;5039506;28;20270;-83
2022/03/05 11:07:22;;;;;;;12.23;3.30;;;24.10;89.20;;;;;;5035043;28;20228;-82
2022/03/05 11:09:50;;;;;;;16.13;3.77;;;24.00;89.30;;;;;;5035659;28;20658;-80
2022/03/05 11:12:21;;;;;;;21.73;3.50;;;24.00;89.40;;;;;;5035768;28;20204;-81
2022/03/05 11:14:50;;;;;;;14.53;3.03;;;24.00;89.50;;;;;;5035637;28;20176;-81
2022/03/05 11:17:20;;;;;;;14.40;3.10;;;24.00;89.50;;;;;;5037913;28;20304;-81
2022/03/05 11:19:49;;;;;;;14.60;3.33;;;24.00;89.50;;;;;;5055469;28;20196;-81
2022/03/05 11:22:17;;;;;;;15.03;3.17;;;24.00;89.50;;;;;;5055505;28;20183;-81
2022/03/05 11:24:45;;;;;;;15.70;3.87;;;24.10;89.50;;;;;;5039504;28;20180;-80
2022/03/05 11:27:16;;;;;;;17.50;3.60;;;24.10;89.40;;;;;;5035199;28;20243;-78
2022/03/05 11:30:05;;;;;;;14.73;3.33;;;24.10;89.20;;;;;;5048328;28;20172;-78
2022/03/05 11:32:40;;;;;;;13.40;2.97;;;24.10;89.20;;;;;;5051421;28;20194;-80
2022/03/05 11:35:31;;;;;;;11.30;2.73;;;24.10;89.40;;;;;;5042968;28;20226;-81
2022/03/05 11:37:58;;;;;;;15.17;3.13;;;24.10;89.50;;;;;;5053586;28;20172;-81
2022/03/05 11:40:43;;;;;;;15.10;3.00;;;24.10;89.40;;;;;;5054615;28;20587;-77
2022/03/05 11:43:18;;;;;;;15.90;3.17;;;24.10;89.30;;;;;;5055414;28;20175;-81
2022/03/05 11:45:50;;;;;;;20.17;3.33;;;24.10;89.40;;;;;;5055207;28;20175;-80
2022/03/05 11:48:28;;;;;;;14.53;3.93;;;24.10;89.60;;;;;;5054931;28;20269;-81
2022/03/05 11:51:16;;;;;;;13.43;2.60;;;24.10;89.70;;;;;;5039113;28;20177;-80
2022/03/05 11:53:44;;;;;;;12.17;2.87;;;24.10;89.60;;;;;;5052879;28;20554;-81
2022/03/05 11:56:25;;;;;;;6.07;1.50;;;24.00;88.20;;;;;;5054523;28;20183;-79
2022/03/05 11:58:53;;;;;;;3.53;1.23;;;23.60;85.20;;;;;;5040753;28;20222;-76
2022/03/05 12:01:38;;;;;;;2.70;1.17;;;23.30;83.50;;;;;;5054376;28;20179;-77
2022/03/05 12:04:19;;;;;;;0.90;0.70;;;23.00;82.70;;;;;;5054825;28;20176;-84
2022/03/05 12:06:51;;;;;;;1.10;0.60;;;22.80;83.10;;;;;;5037825;28;20286;-77
2022/03/05 12:09:44;;;;;;;0.60;0.60;;;22.70;83.40;;;;;;5036287;28;20643;-80
2022/03/05 12:12:17;;;;;;;1.27;0.87;;;22.50;83.90;;;;;;5050784;28;20180;-77
2022/03/05 12:14:59;;;;;;;1.03;0.80;;;22.40;84.70;;;;;;5036304;28;20654;-83
2022/03/05 12:17:31;;;;;;;0.87;0.67;;;22.30;85.30;;;;;;5035619;28;20233;-81
2022/03/05 12:19:59;;;;;;;3.87;0.97;;;22.20;85.70;;;;;;5054469;28;20175;-81
2022/03/05 12:22:26;;;;;;;0.80;0.63;;;22.00;86.20;;;;;;5054439;28;20172;-80
2022/03/05 12:24:53;;;;;;;2.03;1.23;;;21.90;87.10;;;;;;5054244;28;20249;-89
2022/03/05 12:27:23;;;;;;;1.67;0.97;;;21.80;87.90;;;;;;5047054;28;20200;-83
2022/03/05 12:29:53;;;;;;;2.90;1.23;;;21.80;88.70;;;;;;5048942;28;20183;-85
2022/03/05 12:32:28;;;;;;;2.30;1.57;;;21.60;89.00;;;;;;5054284;28;20262;-82
2022/03/05 12:35:04;;;;;;;2.57;1.13;;;21.50;89.50;;;;;;5036489;28;20195;-83
2022/03/05 12:37:32;;;;;;;3.37;1.40;;;21.40;90.10;;;;;;5034878;28;20541;-79
2022/03/05 12:40:00;;;;;;;2.67;1.40;;;21.30;90.30;;;;;;5040809;28;20180;-77
2022/03/05 12:42:48;;;;;;;3.17;1.30;;;21.30;90.40;;;;;;5056874;28;20188;-77
2022/03/05 12:45:17;;;;;;;2.20;1.37;;;21.20;91.50;;;;;;5054186;28;20538;-82
2022/03/05 12:47:45;;;;;;;2.10;1.27;;;21.10;91.80;;;;;;5053351;28;20199;-78
2022/03/05 12:50:26;;;;;;;2.33;1.30;;;21.00;92.20;;;;;;5054086;28;20575;-81
2022/03/05 12:53:05;;;;;;;2.20;1.60;;;20.90;92.30;;;;;;5051969;28;20237;-79